sensor_id;sensor_type;location;lat;lon;timestamp;temperature;humidity
1678;DHT22;6034;46.864;15.216;2022-12-18T07:15:42;-2.60;99.90
1678;DHT22;6034;46.864;15.216;2022-12-18T07:18:10;-3.70;99.90
1678;DHT22;6034;46.864;15.216;2022-12-18T07:20:37;-3.70;99.90
1678;DHT22;6034;46.864;15.216;2022-12-18T07:23:04;-3.70;99.90
1678;DHT22;6034;46.864;15.216;2022-12-18T07:25:33;-3.70;99.90
1678;DHT22;6034;46.864;15.216;2022-12-18T07:28:00;-3.60;99.90
1678;DHT22;6034;46.864;15.216;2022-12-18T07:30:27;-3.70;99.90
1678;DHT22;6034;46.864;15.216;2022-12-18T07:32:55;-3.60;99.90
1678;DHT22;6034;46.864;15.216;2022-12-18T07:35:22;-3.50;99.90
1678;DHT22;6034;46.864;15.216;2022-12-18T07:37:49;-3.60;99.90
1678;DHT22;6034;46.864;15.216;2022-12-18T07:40:16;-3.60;99.90
1678;DHT22;6034;46.864;15.216;2022-12-18T07:42:43;-3.50;99.90
1678;DHT22;6034;46.864;15.216;2022-12-18T07:45:10;-3.50;99.90
1678;DHT22;6034;46.864;15.216;2022-12-18T07:47:37;-3.50;99.90
1678;DHT22;6034;46.864;15.216;2022-12-18T07:50:06;-3.40;99.90
1678;DHT22;6034;46.864;15.216;2022-12-18T07:52:33;-3.40;99.90
1678;DHT22;6034;46.864;15.216;2022-12-18T07:55:00;-3.40;99.90
1678;DHT22;6034;46.864;15.216;2022-12-18T07:57:27;-3.30;99.90
1678;DHT22;6034;46.864;15.216;2022-12-18T07:59:54;-3.30;99.90
1678;DHT22;6034;46.864;15.216;2022-12-18T08:02:21;-3.20;99.90
1678;DHT22;6034;46.864;15.216;2022-12-18T08:04:48;-3.10;99.90
1678;DHT22;6034;46.864;15.216;2022-12-18T08:07:16;-3.10;99.90
1678;DHT22;6034;46.864;15.216;2022-12-18T08:09:44;-3.00;99.90
1678;DHT22;6034;46.864;15.216;2022-12-18T08:12:10;-2.90;99.90
1678;DHT22;6034;46.864;15.216;2022-12-18T08:14:37;-2.90;99.90
1678;DHT22;6034;46.864;15.216;2022-12-18T08:17:05;-2.90;99.90
1678;DHT22;6034;46.864;15.216;2022-12-18T08:19:31;-2.80;99.90
1678;DHT22;6034;46.864;15.216;2022-12-18T08:21:58;-2.70;99.90
1678;DHT22;6034;46.864;15.216;2022-12-18T08:24:27;-2.80;99.90
1678;DHT22;6034;46.864;15.216;2022-12-18T08:26:54;-3.10;99.90
1678;DHT22;6034;46.864;15.216;2022-12-18T08:29:22;-3.00;99.90
1678;DHT22;6034;46.864;15.216;2022-12-18T08:31:49;-2.90;99.90
1678;DHT22;6034;46.864;15.216;2022-12-18T08:34:16;-2.90;99.90
1678;DHT22;6034;46.864;15.216;2022-12-18T08:36:43;-2.80;99.90
1678;DHT22;6034;46.864;15.216;2022-12-18T08:39:10;-2.70;99.90
1678;DHT22;6034;46.864;15.216;2022-12-18T08:41:38;-2.60;99.90
1678;DHT22;6034;46.864;15.216;2022-12-18T08:44:06;-2.70;99.90
1678;DHT22;6034;46.864;15.216;2022-12-18T08:46:51;-2.80;99.90
1678;DHT22;6034;46.864;15.216;2022-12-18T08:49:18;-3.00;99.90
1678;DHT22;6034;46.864;15.216;2022-12-18T08:51:45;-2.80;99.90
1678;DHT22;6034;46.864;15.216;2022-12-18T08:54:12;-2.70;99.90
1678;DHT22;6034;46.864;15.216;2022-12-18T08:56:40;-2.50;99.90
1678;DHT22;6034;46.864;15.216;2022-12-18T08:59:08;-2.50;99.90
1678;DHT22;6034;46.864;15.216;2022-12-18T09:01:35;-2.40;99.90
1678;DHT22;6034;46.864;15.216;2022-12-18T09:04:02;-2.30;99.90
1678;DHT22;6034;46.864;15.216;2022-12-18T09:06:29;-2.50;99.90
1678;DHT22;6034;46.864;15.216;2022-12-18T09:08:56;-2.30;99.90
1678;DHT22;6034;46.864;15.216;2022-12-18T09:11:24;-2.30;99.90
1678;DHT22;6034;46.864;15.216;2022-12-18T09:13:53;-2.50;99.90
1678;DHT22;6034;46.864;15.216;2022-12-18T09:16:21;-2.20;99.90
1678;DHT22;6034;46.864;15.216;2022-12-18T09:18:48;-2.20;99.90
1678;DHT22;6034;46.864;15.216;2022-12-18T09:21:16;-2.10;99.90
1678;DHT22;6034;46.864;15.216;2022-12-18T09:23:43;-2.20;99.90
1678;DHT22;6034;46.864;15.216;2022-12-18T09:26:10;-2.40;99.90
1678;DHT22;6034;46.864;15.216;2022-12-18T09:28:37;-2.60;99.90
1678;DHT22;6034;46.864;15.216;2022-12-18T09:31:06;-2.60;99.90
1678;DHT22;6034;46.864;15.216;2022-12-18T09:33:34;-2.50;99.90
1678;DHT22;6034;46.864;15.216;2022-12-18T09:36:01;-2.50;99.90
1678;DHT22;6034;46.864;15.216;2022-12-18T09:38:28;-2.10;99.90
1678;DHT22;6034;46.864;15.216;2022-12-18T09:40:56;-2.30;99.90
1678;DHT22;6034;46.864;15.216;2022-12-18T09:43:26;-2.20;99.90
1678;DHT22;6034;46.864;15.216;2022-12-18T09:45:55;-2.10;99.90
1678;DHT22;6034;46.864;15.216;2022-12-18T09:48:25;-2.20;99.90
1678;DHT22;6034;46.864;15.216;2022-12-18T09:50:52;-2.00;99.90
1678;DHT22;6034;46.864;15.216;2022-12-18T09:53:22;-2.10;99.90
1678;DHT22;6034;46.864;15.216;2022-12-18T09:55:51;-2.20;99.90
1678;DHT22;6034;46.864;15.216;2022-12-18T09:58:20;-2.00;99.90
1678;DHT22;6034;46.864;15.216;2022-12-18T10:00:51;-1.90;99.90
1678;DHT22;6034;46.864;15.216;2022-12-18T10:03:18;-2.00;99.90
1678;DHT22;6034;46.864;15.216;2022-12-18T10:05:51;-1.80;99.90
1678;DHT22;6034;46.864;15.216;2022-12-18T10:08:22;-1.80;99.90
1678;DHT22;6034;46.864;15.216;2022-12-18T10:10:51;-1.70;99.90
1678;DHT22;6034;46.864;15.216;2022-12-18T10:13:21;-1.60;99.90
1678;DHT22;6034;46.864;15.216;2022-12-18T10:16:03;-1.70;99.90
1678;DHT22;6034;46.864;15.216;2022-12-18T10:18:36;-1.60;99.90
1678;DHT22;6034;46.864;15.216;2022-12-18T10:21:07;-1.70;99.90
1678;DHT22;6034;46.864;15.216;2022-12-18T10:23:37;-1.60;99.90
1678;DHT22;6034;46.864;15.216;2022-12-18T10:26:07;-1.60;99.90
1678;DHT22;6034;46.864;15.216;2022-12-18T10:28:36;-1.50;99.90
1678;DHT22;6034;46.864;15.216;2022-12-18T10:31:04;-1.50;99.90
1678;DHT22;6034;46.864;15.216;2022-12-18T10:33:32;-1.70;99.90
1678;DHT22;6034;46.864;15.216;2022-12-18T10:35:59;-1.60;99.90
1678;DHT22;6034;46.864;15.216;2022-12-18T10:38:29;-1.70;99.90
1678;DHT22;6034;46.864;15.216;2022-12-18T10:40:57;-1.50;99.90
1678;DHT22;6034;46.864;15.216;2022-12-18T10:43:26;-1.40;99.90
1678;DHT22;6034;46.864;15.216;2022-12-18T10:45:59;-1.40;99.90
1678;DHT22;6034;46.864;15.216;2022-12-18T10:48:27;-1.40;99.90
1678;DHT22;6034;46.864;15.216;2022-12-18T10:50:54;-1.40;99.90
1678;DHT22;6034;46.864;15.216;2022-12-18T10:53:23;-1.40;99.90
1678;DHT22;6034;46.864;15.216;2022-12-18T10:55:52;-1.40;99.90
1678;DHT22;6034;46.864;15.216;2022-12-18T10:58:22;-1.50;99.90
1678;DHT22;6034;46.864;15.216;2022-12-18T11:01:06;-1.70;99.90
1678;DHT22;6034;46.864;15.216;2022-12-18T11:03:34;-1.50;99.90
1678;DHT22;6034;46.864;15.216;2022-12-18T11:06:03;-1.50;99.90
1678;DHT22;6034;46.864;15.216;2022-12-18T11:08:31;-1.40;99.90
1678;DHT22;6034;46.864;15.216;2022-12-18T11:10:59;-1.40;99.90
1678;DHT22;6034;46.864;15.216;2022-12-18T11:13:27;-1.30;99.90
1678;DHT22;6034;46.864;15.216;2022-12-18T11:15:54;-1.20;99.90
1678;DHT22;6034;46.864;15.216;2022-12-18T11:18:23;-1.30;99.90
1678;DHT22;6034;46.864;15.216;2022-12-18T11:20:52;-1.40;99.90
1678;DHT22;6034;46.864;15.216;2022-12-18T11:23:20;-1.30;99.90
1678;DHT22;6034;46.864;15.216;2022-12-18T11:25:56;-1.20;99.90
1678;DHT22;6034;46.864;15.216;2022-12-18T11:28:29;-1.20;99.90
1678;DHT22;6034;46.864;15.216;2022-12-18T11:31:09;-1.30;99.90
1678;DHT22;6034;46.864;15.216;2022-12-18T11:33:36;-1.40;99.90
1678;DHT22;6034;46.864;15.216;2022-12-18T11:36:04;-1.40;99.90
1678;DHT22;6034;46.864;15.216;2022-12-18T11:38:34;-1.30;99.90
1678;DHT22;6034;46.864;15.216;2022-12-18T11:41:03;-1.20;99.90
1678;DHT22;6034;46.864;15.216;2022-12-18T11:43:33;-1.20;99.90
1678;DHT22;6034;46.864;15.216;2022-12-18T11:46:04;-1.50;99.90
1678;DHT22;6034;46.864;15.216;2022-12-18T11:48:32;-1.40;99.90
1678;DHT22;6034;46.864;15.216;2022-12-18T11:51:01;-1.30;99.90
1678;DHT22;6034;46.864;15.216;2022-12-18T11:53:29;-1.20;99.90
1678;DHT22;6034;46.864;15.216;2022-12-18T11:56:01;-1.20;99.90
1678;DHT22;6034;46.864;15.216;2022-12-18T11:58:44;-1.30;99.90
1678;DHT22;6034;46.864;15.216;2022-12-18T12:01:18;-1.30;99.90
1678;DHT22;6034;46.864;15.216;2022-12-18T12:03:57;-1.30;99.90
1678;DHT22;6034;46.864;15.216;2022-12-18T12:06:31;-1.60;99.90
1678;DHT22;6034;46.864;15.216;2022-12-18T12:09:04;-1.60;99.90
1678;DHT22;6034;46.864;15.216;2022-12-18T12:11:36;-1.50;99.90
1678;DHT22;6034;46.864;15.216;2022-12-18T12:14:12;-1.40;99.90
1678;DHT22;6034;46.864;15.216;2022-12-18T12:16:44;-1.30;99.90
1678;DHT22;6034;46.864;15.216;2022-12-18T12:19:18;-1.50;99.90
1678;DHT22;6034;46.864;15.216;2022-12-18T12:21:51;-1.60;99.90
1678;DHT22;6034;46.864;15.216;2022-12-18T12:24:23;-1.70;99.90
1678;DHT22;6034;46.864;15.216;2022-12-18T12:26:56;-1.80;99.90
1678;DHT22;6034;46.864;15.216;2022-12-18T12:29:29;-1.90;99.90
1678;DHT22;6034;46.864;15.216;2022-12-18T12:32:06;-2.00;99.90
1678;DHT22;6034;46.864;15.216;2022-12-18T12:34:34;-1.90;99.90
1678;DHT22;6034;46.864;15.216;2022-12-18T12:37:08;-1.70;99.90
1678;DHT22;6034;46.864;15.216;2022-12-18T12:39:39;-1.60;99.90
1678;DHT22;6034;46.864;15.216;2022-12-18T12:42:11;-1.50;99.90
1678;DHT22;6034;46.864;15.216;2022-12-18T12:45:13;-1.40;99.90
1678;DHT22;6034;46.864;15.216;2022-12-18T12:47:41;-1.40;99.90
1678;DHT22;6034;46.864;15.216;2022-12-18T12:50:12;-1.30;99.90
1678;DHT22;6034;46.864;15.216;2022-12-18T12:52:40;-1.30;99.90
1678;DHT22;6034;46.864;15.216;2022-12-18T12:55:13;-1.20;99.90
1678;DHT22;6034;46.864;15.216;2022-12-18T12:57:43;-1.20;99.90
1678;DHT22;6034;46.864;15.216;2022-12-18T13:00:14;-1.30;99.90
1678;DHT22;6034;46.864;15.216;2022-12-18T13:02:43;-1.30;99.90
1678;DHT22;6034;46.864;15.216;2022-12-18T13:05:14;-1.70;99.90
1678;DHT22;6034;46.864;15.216;2022-12-18T13:07:46;-1.90;99.90
1678;DHT22;6034;46.864;15.216;2022-12-18T13:10:31;-1.60;99.90
1678;DHT22;6034;46.864;15.216;2022-12-18T13:13:06;-1.70;99.90
1678;DHT22;6034;46.864;15.216;2022-12-18T13:15:38;-1.90;99.90
1678;DHT22;6034;46.864;15.216;2022-12-18T13:18:16;-2.00;99.90
1678;DHT22;6034;46.864;15.216;2022-12-18T13:20:44;-1.80;99.90
1678;DHT22;6034;46.864;15.216;2022-12-18T13:26:27;-2.10;99.90
1678;DHT22;6034;46.864;15.216;2022-12-18T13:28:51;-2.20;99.90
1678;DHT22;6034;46.864;15.216;2022-12-18T13:34:14;-2.40;99.90
1678;DHT22;6034;46.864;15.216;2022-12-18T13:36:42;-2.40;99.90
1678;DHT22;6034;46.864;15.216;2022-12-18T13:39:23;-2.30;99.90
1678;DHT22;6034;46.864;15.216;2022-12-18T13:41:51;-2.30;99.90
1678;DHT22;6034;46.864;15.216;2022-12-18T13:44:24;-2.20;99.90
1678;DHT22;6034;46.864;15.216;2022-12-18T13:46:52;-2.20;99.90
1678;DHT22;6034;46.864;15.216;2022-12-18T13:49:22;-2.30;99.90
1678;DHT22;6034;46.864;15.216;2022-12-18T13:51:51;-2.30;99.90
1678;DHT22;6034;46.864;15.216;2022-12-18T13:54:19;-2.20;99.90
1678;DHT22;6034;46.864;15.216;2022-12-18T13:56:49;-2.00;99.90
1678;DHT22;6034;46.864;15.216;2022-12-18T13:59:19;-1.90;99.90
1678;DHT22;6034;46.864;15.216;2022-12-18T14:01:49;-1.90;99.90
1678;DHT22;6034;46.864;15.216;2022-12-18T14:04:18;-1.90;99.90
1678;DHT22;6034;46.864;15.216;2022-12-18T14:06:47;-1.90;99.90
1678;DHT22;6034;46.864;15.216;2022-12-18T14:09:16;-1.90;99.90
1678;DHT22;6034;46.864;15.216;2022-12-18T14:11:46;-1.90;99.90
1678;DHT22;6034;46.864;15.216;2022-12-18T14:14:14;-1.80;99.90
1678;DHT22;6034;46.864;15.216;2022-12-18T14:16:41;-1.90;99.90
1678;DHT22;6034;46.864;15.216;2022-12-18T14:19:09;-2.10;99.90
1678;DHT22;6034;46.864;15.216;2022-12-18T14:21:38;-1.80;99.90
1678;DHT22;6034;46.864;15.216;2022-12-18T14:24:12;-1.80;99.90
1678;DHT22;6034;46.864;15.216;2022-12-18T14:26:40;-1.70;99.90
1678;DHT22;6034;46.864;15.216;2022-12-18T14:29:20;-1.60;99.90
1678;DHT22;6034;46.864;15.216;2022-12-18T14:34:29;-1.90;99.90
1678;DHT22;6034;46.864;15.216;2022-12-18T14:36:56;-1.70;99.90
1678;DHT22;6034;46.864;15.216;2022-12-18T14:39:24;-2.10;99.90
1678;DHT22;6034;46.864;15.216;2022-12-18T14:41:51;-1.90;99.90
1678;DHT22;6034;46.864;15.216;2022-12-18T14:44:18;-2.20;99.90
1678;DHT22;6034;46.864;15.216;2022-12-18T14:46:46;-2.10;99.90
1678;DHT22;6034;46.864;15.216;2022-12-18T14:49:18;-2.00;99.90
1678;DHT22;6034;46.864;15.216;2022-12-18T14:51:47;-1.80;99.90
1678;DHT22;6034;46.864;15.216;2022-12-18T14:54:16;-1.90;99.90
1678;DHT22;6034;46.864;15.216;2022-12-18T14:56:45;-1.70;99.90
1678;DHT22;6034;46.864;15.216;2022-12-18T14:59:13;-1.70;99.90
1678;DHT22;6034;46.864;15.216;2022-12-18T15:01:44;-1.70;99.90
1678;DHT22;6034;46.864;15.216;2022-12-18T15:04:23;-1.70;99.90
1678;DHT22;6034;46.864;15.216;2022-12-18T15:07:03;-1.70;99.90
1678;DHT22;6034;46.864;15.216;2022-12-18T15:09:32;-1.90;99.90
1678;DHT22;6034;46.864;15.216;2022-12-18T15:12:01;-2.00;99.90
1678;DHT22;6034;46.864;15.216;2022-12-18T15:14:33;-2.30;99.90
1678;DHT22;6034;46.864;15.216;2022-12-18T15:17:02;-2.60;99.90
1678;DHT22;6034;46.864;15.216;2022-12-18T15:19:35;-2.50;99.90
1678;DHT22;6034;46.864;15.216;2022-12-18T15:22:13;-2.50;99.90
1678;DHT22;6034;46.864;15.216;2022-12-18T15:24:44;-2.30;99.90
1678;DHT22;6034;46.864;15.216;2022-12-18T15:27:22;-2.10;99.90
1678;DHT22;6034;46.864;15.216;2022-12-18T15:30:01;-1.90;99.90
1678;DHT22;6034;46.864;15.216;2022-12-18T15:32:29;-1.90;99.90
1678;DHT22;6034;46.864;15.216;2022-12-18T15:35:02;-1.80;99.90
1678;DHT22;6034;46.864;15.216;2022-12-18T15:37:30;-1.90;99.90
1678;DHT22;6034;46.864;15.216;2022-12-18T15:39:58;-1.80;99.90
1678;DHT22;6034;46.864;15.216;2022-12-18T15:42:29;-2.00;99.90
1678;DHT22;6034;46.864;15.216;2022-12-18T15:45:14;-2.20;99.90
1678;DHT22;6034;46.864;15.216;2022-12-18T15:47:41;-2.20;99.90
1678;DHT22;6034;46.864;15.216;2022-12-18T15:50:09;-2.20;99.90
1678;DHT22;6034;46.864;15.216;2022-12-18T15:52:39;-2.20;99.90
1678;DHT22;6034;46.864;15.216;2022-12-18T15:55:09;-2.50;99.90
1678;DHT22;6034;46.864;15.216;2022-12-18T15:57:56;-2.60;99.90
1678;DHT22;6034;46.864;15.216;2022-12-18T16:00:24;-2.60;99.90
1678;DHT22;6034;46.864;15.216;2022-12-18T16:02:53;-2.80;99.90
1678;DHT22;6034;46.864;15.216;2022-12-18T16:05:21;-2.70;99.90
1678;DHT22;6034;46.864;15.216;2022-12-18T16:07:49;-2.60;99.90
1678;DHT22;6034;46.864;15.216;2022-12-18T16:10:17;-2.60;99.90
1678;DHT22;6034;46.864;15.216;2022-12-18T16:12:45;-2.70;99.90
1678;DHT22;6034;46.864;15.216;2022-12-18T16:15:14;-2.80;99.90
1678;DHT22;6034;46.864;15.216;2022-12-18T16:17:45;-2.90;99.90
1678;DHT22;6034;46.864;15.216;2022-12-18T16:20:14;-2.80;99.90
1678;DHT22;6034;46.864;15.216;2022-12-18T16:22:42;-2.80;99.90
1678;DHT22;6034;46.864;15.216;2022-12-18T16:25:16;-2.60;99.90
1678;DHT22;6034;46.864;15.216;2022-12-18T16:27:44;-2.60;99.90
1678;DHT22;6034;46.864;15.216;2022-12-18T16:30:14;-2.60;99.90
1678;DHT22;6034;46.864;15.216;2022-12-18T16:32:43;-2.70;99.90
1678;DHT22;6034;46.864;15.216;2022-12-18T16:35:12;-2.80;99.90
1678;DHT22;6034;46.864;15.216;2022-12-18T16:37:40;-2.80;99.90
1678;DHT22;6034;46.864;15.216;2022-12-18T16:40:09;-3.10;99.90
1678;DHT22;6034;46.864;15.216;2022-12-18T16:42:38;-3.10;99.90
1678;DHT22;6034;46.864;15.216;2022-12-18T16:45:07;-2.90;99.90
1678;DHT22;6034;46.864;15.216;2022-12-18T16:47:37;-2.90;99.90
1678;DHT22;6034;46.864;15.216;2022-12-18T16:50:05;-3.00;99.90
1678;DHT22;6034;46.864;15.216;2022-12-18T16:52:34;-3.20;99.90
1678;DHT22;6034;46.864;15.216;2022-12-18T16:55:03;-3.10;99.90
1678;DHT22;6034;46.864;15.216;2022-12-18T16:57:31;-3.10;99.90
1678;DHT22;6034;46.864;15.216;2022-12-18T16:59:58;-3.20;99.90
1678;DHT22;6034;46.864;15.216;2022-12-18T17:02:26;-3.10;99.90
1678;DHT22;6034;46.864;15.216;2022-12-18T17:04:56;-3.00;99.90
1678;DHT22;6034;46.864;15.216;2022-12-18T17:07:33;-3.20;99.90
1678;DHT22;6034;46.864;15.216;2022-12-18T17:10:02;-3.20;99.90
1678;DHT22;6034;46.864;15.216;2022-12-18T17:12:29;-3.10;99.90
1678;DHT22;6034;46.864;15.216;2022-12-18T17:14:57;-3.10;99.90
1678;DHT22;6034;46.864;15.216;2022-12-18T17:17:25;-3.20;99.90
1678;DHT22;6034;46.864;15.216;2022-12-18T17:19:54;-3.00;99.90
1678;DHT22;6034;46.864;15.216;2022-12-18T17:22:23;-3.00;99.90
1678;DHT22;6034;46.864;15.216;2022-12-18T17:24:50;-3.00;99.90
1678;DHT22;6034;46.864;15.216;2022-12-18T17:27:18;-3.10;99.90
1678;DHT22;6034;46.864;15.216;2022-12-18T17:29:45;-3.00;99.90
1678;DHT22;6034;46.864;15.216;2022-12-18T17:32:13;-3.10;99.90
1678;DHT22;6034;46.864;15.216;2022-12-18T17:34:41;-3.10;99.90
1678;DHT22;6034;46.864;15.216;2022-12-18T17:37:10;-3.00;99.90
1678;DHT22;6034;46.864;15.216;2022-12-18T17:39:39;-3.00;99.90
1678;DHT22;6034;46.864;15.216;2022-12-18T17:42:06;-2.70;99.90
1678;DHT22;6034;46.864;15.216;2022-12-18T17:44:34;-2.60;99.90
1678;DHT22;6034;46.864;15.216;2022-12-18T17:47:02;-2.80;99.90
1678;DHT22;6034;46.864;15.216;2022-12-18T17:49:30;-2.90;99.90
1678;DHT22;6034;46.864;15.216;2022-12-18T17:51:58;-2.90;99.90
1678;DHT22;6034;46.864;15.216;2022-12-18T17:54:26;-2.80;99.90
1678;DHT22;6034;46.864;15.216;2022-12-18T17:56:55;-2.70;99.90
1678;DHT22;6034;46.864;15.216;2022-12-18T17:59:23;-2.70;99.90
1678;DHT22;6034;46.864;15.216;2022-12-18T18:01:51;-2.70;99.90
1678;DHT22;6034;46.864;15.216;2022-12-18T18:04:18;-2.70;99.90
1678;DHT22;6034;46.864;15.216;2022-12-18T18:06:46;-2.60;99.90
1678;DHT22;6034;46.864;15.216;2022-12-18T18:09:15;-2.50;99.90
1678;DHT22;6034;46.864;15.216;2022-12-18T18:11:43;-2.40;99.90
1678;DHT22;6034;46.864;15.216;2022-12-18T18:14:30;-2.40;99.90
1678;DHT22;6034;46.864;15.216;2022-12-18T18:16:58;-2.30;99.90
1678;DHT22;6034;46.864;15.216;2022-12-18T18:19:26;-2.30;99.90
1678;DHT22;6034;46.864;15.216;2022-12-18T18:21:54;-2.40;99.90
1678;DHT22;6034;46.864;15.216;2022-12-18T18:24:22;-2.40;99.90
1678;DHT22;6034;46.864;15.216;2022-12-18T18:26:50;-2.50;99.90
1678;DHT22;6034;46.864;15.216;2022-12-18T18:29:18;-2.40;99.90
1678;DHT22;6034;46.864;15.216;2022-12-18T18:31:48;-2.40;99.90
1678;DHT22;6034;46.864;15.216;2022-12-18T18:34:17;-2.40;99.90
1678;DHT22;6034;46.864;15.216;2022-12-18T18:36:45;-2.30;99.90
1678;DHT22;6034;46.864;15.216;2022-12-18T18:39:13;-2.30;99.90
1678;DHT22;6034;46.864;15.216;2022-12-18T18:41:41;-2.20;99.90
1678;DHT22;6034;46.864;15.216;2022-12-18T18:44:09;-2.20;99.90
1678;DHT22;6034;46.864;15.216;2022-12-18T18:46:37;-2.20;99.90
1678;DHT22;6034;46.864;15.216;2022-12-18T18:49:07;-2.10;99.90
1678;DHT22;6034;46.864;15.216;2022-12-18T18:51:35;-2.20;99.90
1678;DHT22;6034;46.864;15.216;2022-12-18T18:54:03;-2.10;99.90
1678;DHT22;6034;46.864;15.216;2022-12-18T18:56:31;-2.10;99.90
1678;DHT22;6034;46.864;15.216;2022-12-18T18:58:58;-2.10;99.90
1678;DHT22;6034;46.864;15.216;2022-12-18T19:01:25;-2.10;99.90
1678;DHT22;6034;46.864;15.216;2022-12-18T19:03:53;-2.10;99.90
1678;DHT22;6034;46.864;15.216;2022-12-18T19:06:23;-2.10;99.90
1678;DHT22;6034;46.864;15.216;2022-12-18T19:08:51;-2.10;99.90
1678;DHT22;6034;46.864;15.216;2022-12-18T19:11:19;-2.10;99.90
1678;DHT22;6034;46.864;15.216;2022-12-18T19:14:05;-2.10;99.90
1678;DHT22;6034;46.864;15.216;2022-12-18T19:16:33;-2.00;99.90
1678;DHT22;6034;46.864;15.216;2022-12-18T19:19:00;-2.00;99.90
1678;DHT22;6034;46.864;15.216;2022-12-18T19:21:30;-2.00;99.90
1678;DHT22;6034;46.864;15.216;2022-12-18T19:23:58;-2.00;99.90
1678;DHT22;6034;46.864;15.216;2022-12-18T19:26:25;-2.10;99.90
1678;DHT22;6034;46.864;15.216;2022-12-18T19:28:53;-2.10;99.90
1678;DHT22;6034;46.864;15.216;2022-12-18T19:31:22;-2.10;99.90
1678;DHT22;6034;46.864;15.216;2022-12-18T19:33:53;-2.10;99.90
1678;DHT22;6034;46.864;15.216;2022-12-18T19:36:22;-2.10;99.90
1678;DHT22;6034;46.864;15.216;2022-12-18T19:38:52;-2.10;99.90
1678;DHT22;6034;46.864;15.216;2022-12-18T19:41:20;-2.10;99.90
1678;DHT22;6034;46.864;15.216;2022-12-18T19:43:49;-2.10;99.90
1678;DHT22;6034;46.864;15.216;2022-12-18T19:46:18;-2.10;99.90
1678;DHT22;6034;46.864;15.216;2022-12-18T19:48:46;-2.10;99.90
1678;DHT22;6034;46.864;15.216;2022-12-18T19:51:14;-2.10;99.90
1678;DHT22;6034;46.864;15.216;2022-12-18T19:53:43;-2.00;99.90
1678;DHT22;6034;46.864;15.216;2022-12-18T19:56:15;-2.10;99.90
1678;DHT22;6034;46.864;15.216;2022-12-18T19:58:43;-2.10;99.90
1678;DHT22;6034;46.864;15.216;2022-12-18T20:01:11;-2.30;99.90
1678;DHT22;6034;46.864;15.216;2022-12-18T20:03:39;-2.20;99.90
1678;DHT22;6034;46.864;15.216;2022-12-18T20:06:07;-2.10;99.90
1678;DHT22;6034;46.864;15.216;2022-12-18T20:08:35;-2.10;99.90
1678;DHT22;6034;46.864;15.216;2022-12-18T20:11:02;-2.10;99.90
1678;DHT22;6034;46.864;15.216;2022-12-18T20:13:31;-2.00;99.90
1678;DHT22;6034;46.864;15.216;2022-12-18T20:16:00;-2.00;99.90
1678;DHT22;6034;46.864;15.216;2022-12-18T20:18:28;-2.00;99.90
1678;DHT22;6034;46.864;15.216;2022-12-18T20:20:55;-2.00;99.90
1678;DHT22;6034;46.864;15.216;2022-12-18T20:23:25;-2.00;99.90
1678;DHT22;6034;46.864;15.216;2022-12-18T20:25:52;-1.90;99.90
1678;DHT22;6034;46.864;15.216;2022-12-18T20:28:20;-2.10;99.90
1678;DHT22;6034;46.864;15.216;2022-12-18T20:30:49;-2.10;99.90
1678;DHT22;6034;46.864;15.216;2022-12-18T20:33:17;-2.00;99.90
1678;DHT22;6034;46.864;15.216;2022-12-18T20:35:44;-2.00;99.90
1678;DHT22;6034;46.864;15.216;2022-12-18T20:38:12;-2.00;99.90
1678;DHT22;6034;46.864;15.216;2022-12-18T20:40:40;-2.00;99.90
1678;DHT22;6034;46.864;15.216;2022-12-18T20:43:07;-2.00;99.90
1678;DHT22;6034;46.864;15.216;2022-12-18T20:45:35;-2.00;99.90
1678;DHT22;6034;46.864;15.216;2022-12-18T20:48:07;-2.00;99.90
1678;DHT22;6034;46.864;15.216;2022-12-18T20:50:34;-2.00;99.90
1678;DHT22;6034;46.864;15.216;2022-12-18T20:53:02;-1.90;99.90
1678;DHT22;6034;46.864;15.216;2022-12-18T20:55:30;-1.90;99.90
1678;DHT22;6034;46.864;15.216;2022-12-18T20:57:57;-2.00;99.90
1678;DHT22;6034;46.864;15.216;2022-12-18T21:00:25;-1.90;99.90
1678;DHT22;6034;46.864;15.216;2022-12-18T21:02:52;-1.90;99.90
1678;DHT22;6034;46.864;15.216;2022-12-18T21:05:21;-2.00;99.90
1678;DHT22;6034;46.864;15.216;2022-12-18T21:07:48;-1.90;99.90
1678;DHT22;6034;46.864;15.216;2022-12-18T21:10:15;-1.90;99.90
1678;DHT22;6034;46.864;15.216;2022-12-18T21:12:43;-1.90;99.90
1678;DHT22;6034;46.864;15.216;2022-12-18T21:15:14;-1.80;99.90
1678;DHT22;6034;46.864;15.216;2022-12-18T21:17:41;-1.90;99.90
1678;DHT22;6034;46.864;15.216;2022-12-18T21:20:09;-1.90;99.90
1678;DHT22;6034;46.864;15.216;2022-12-18T21:22:38;-1.90;99.90
1678;DHT22;6034;46.864;15.216;2022-12-18T21:25:05;-2.00;99.90
1678;DHT22;6034;46.864;15.216;2022-12-18T21:27:33;-2.00;99.90
1678;DHT22;6034;46.864;15.216;2022-12-18T21:30:01;-2.00;99.90
1678;DHT22;6034;46.864;15.216;2022-12-18T21:32:28;-2.10;99.90
1678;DHT22;6034;46.864;15.216;2022-12-18T21:34:55;-1.90;99.90
1678;DHT22;6034;46.864;15.216;2022-12-18T21:37:22;-2.00;99.90
1678;DHT22;6034;46.864;15.216;2022-12-18T21:39:50;-1.90;99.90
1678;DHT22;6034;46.864;15.216;2022-12-18T21:42:17;-1.90;99.90
1678;DHT22;6034;46.864;15.216;2022-12-18T21:45:02;-1.90;99.90
1678;DHT22;6034;46.864;15.216;2022-12-18T21:47:29;-1.90;99.90
1678;DHT22;6034;46.864;15.216;2022-12-18T21:49:57;-1.90;99.90
1678;DHT22;6034;46.864;15.216;2022-12-18T21:52:24;-1.90;99.90
1678;DHT22;6034;46.864;15.216;2022-12-18T21:54:52;-1.90;99.90
1678;DHT22;6034;46.864;15.216;2022-12-18T21:57:19;-1.90;99.90
1678;DHT22;6034;46.864;15.216;2022-12-18T21:59:46;-1.80;99.90
1678;DHT22;6034;46.864;15.216;2022-12-18T22:10:04;-1.80;99.90
1678;DHT22;6034;46.864;15.216;2022-12-18T22:12:31;-1.80;99.90
1678;DHT22;6034;46.864;15.216;2022-12-18T22:15:02;-1.80;99.90
1678;DHT22;6034;46.864;15.216;2022-12-18T22:17:29;-1.80;99.90
1678;DHT22;6034;46.864;15.216;2022-12-18T22:19:57;-1.80;99.90
1678;DHT22;6034;46.864;15.216;2022-12-18T22:22:23;-1.80;99.90
1678;DHT22;6034;46.864;15.216;2022-12-18T22:24:51;-1.70;99.90
1678;DHT22;6034;46.864;15.216;2022-12-18T22:27:19;-1.80;99.90
1678;DHT22;6034;46.864;15.216;2022-12-18T22:29:46;-1.90;99.90
1678;DHT22;6034;46.864;15.216;2022-12-18T22:32:31;-1.80;99.90
1678;DHT22;6034;46.864;15.216;2022-12-18T22:34:59;-1.80;99.90
1678;DHT22;6034;46.864;15.216;2022-12-18T22:37:26;-1.70;99.90
1678;DHT22;6034;46.864;15.216;2022-12-18T22:39:53;-1.70;99.90
1678;DHT22;6034;46.864;15.216;2022-12-18T22:42:21;-1.80;99.90
1678;DHT22;6034;46.864;15.216;2022-12-18T22:44:48;-1.80;99.90
1678;DHT22;6034;46.864;15.216;2022-12-18T22:47:15;-1.80;99.90
1678;DHT22;6034;46.864;15.216;2022-12-18T22:49:42;-1.70;99.90
1678;DHT22;6034;46.864;15.216;2022-12-18T22:52:09;-1.80;99.90
1678;DHT22;6034;46.864;15.216;2022-12-18T22:54:37;-1.70;99.90
1678;DHT22;6034;46.864;15.216;2022-12-18T22:57:04;-1.70;99.90
1678;DHT22;6034;46.864;15.216;2022-12-18T22:59:32;-1.70;99.90
1678;DHT22;6034;46.864;15.216;2022-12-18T23:01:59;-1.80;99.90
1678;DHT22;6034;46.864;15.216;2022-12-18T23:04:26;-1.70;99.90
1678;DHT22;6034;46.864;15.216;2022-12-18T23:06:54;-1.80;99.90
1678;DHT22;6034;46.864;15.216;2022-12-18T23:09:21;-1.70;99.90
1678;DHT22;6034;46.864;15.216;2022-12-18T23:11:48;-1.70;99.90
1678;DHT22;6034;46.864;15.216;2022-12-18T23:14:15;-1.70;99.90
1678;DHT22;6034;46.864;15.216;2022-12-18T23:16:43;-1.70;99.90
1678;DHT22;6034;46.864;15.216;2022-12-18T23:19:10;-1.80;99.90
1678;DHT22;6034;46.864;15.216;2022-12-18T23:21:37;-1.80;99.90
1678;DHT22;6034;46.864;15.216;2022-12-18T23:24:05;-1.70;99.90
1678;DHT22;6034;46.864;15.216;2022-12-18T23:26:32;-1.70;99.90
1678;DHT22;6034;46.864;15.216;2022-12-18T23:28:59;-1.70;99.90